createdAt,value
2018-03-06T00:01:52.884Z,177.05
2018-03-06T00:04:20.652Z,147.87
2018-03-06T00:06:48.364Z,145.52
2018-03-06T00:09:16.177Z,174.32
2018-03-06T00:11:43.892Z,167.35
2018-03-06T00:14:11.607Z,158.25
2018-03-06T00:16:39.340Z,151.20
2018-03-06T00:19:07.055Z,167.40
2018-03-06T00:21:34.904Z,148.27
2018-03-06T00:24:02.621Z,128.05
2018-03-06T00:26:30.433Z,176.68
2018-03-06T00:28:58.140Z,154.77
2018-03-06T00:31:25.880Z,171.35
2018-03-06T00:33:53.600Z,143.27
2018-03-06T00:36:21.393Z,140.82
2018-03-06T00:38:49.105Z,161.57
2018-03-06T00:41:16.917Z,148.70
2018-03-06T00:43:44.667Z,153.40
2018-03-06T00:46:12.388Z,157.43
2018-03-06T00:48:40.120Z,175.48
2018-03-06T00:51:07.844Z,155.90
2018-03-06T00:53:35.580Z,153.15
2018-03-06T00:56:03.297Z,157.65
2018-03-06T00:58:31.040Z,174.65
2018-03-06T01:00:58.759Z,168.52
2018-03-06T01:03:26.499Z,176.45
2018-03-06T01:05:54.220Z,171.02
2018-03-06T01:08:22.048Z,194.20
2018-03-06T01:10:49.747Z,168.48
2018-03-06T01:13:17.468Z,186.45
2018-03-06T01:15:45.213Z,160.32
2018-03-06T01:18:12.924Z,187.55
2018-03-06T01:20:40.665Z,169.37
2018-03-06T01:23:08.422Z,164.40
2018-03-06T01:25:36.208Z,155.40
2018-03-06T01:28:03.908Z,168.98
2018-03-06T01:30:31.711Z,155.05
2018-03-06T01:32:59.497Z,162.20
2018-03-06T01:35:27.348Z,168.18
2018-03-06T01:37:55.070Z,158.12
2018-03-06T01:40:22.785Z,159.77
2018-03-06T01:42:50.544Z,179.02
2018-03-06T01:45:18.402Z,167.87
2018-03-06T01:47:46.144Z,185.88
2018-03-06T01:50:13.868Z,159.20
2018-03-06T01:52:41.703Z,177.18
2018-03-06T01:55:09.411Z,163.98
2018-03-06T01:57:37.148Z,170.25
2018-03-06T02:00:04.896Z,164.75
2018-03-06T02:02:32.636Z,178.70
2018-03-06T02:05:00.428Z,152.10
2018-03-06T02:07:28.164Z,170.15
2018-03-06T02:09:55.879Z,164.23
2018-03-06T02:12:23.724Z,163.48
2018-03-06T02:14:51.440Z,188.75
2018-03-06T02:17:19.256Z,178.07
2018-03-06T02:19:46.992Z,178.15
2018-03-06T02:22:14.783Z,171.18
2018-03-06T02:24:42.517Z,188.27
2018-03-06T02:27:10.317Z,170.57
2018-03-06T02:29:38.080Z,164.85
2018-03-06T02:32:05.848Z,178.82
2018-03-06T02:34:33.706Z,181.48
2018-03-06T02:37:01.416Z,173.18
2018-03-06T02:39:29.151Z,202.55
2018-03-06T02:41:56.914Z,205.43
2018-03-06T02:44:24.652Z,165.55
2018-03-06T02:46:52.445Z,175.27
2018-03-06T02:49:20.248Z,180.82
2018-03-06T02:51:47.960Z,167.40
2018-03-06T02:54:15.664Z,192.73
2018-03-06T02:56:43.500Z,185.40
2018-03-06T02:59:11.225Z,161.85
2018-03-06T03:01:38.989Z,184.32
2018-03-06T03:04:06.798Z,174.23
2018-03-06T03:06:34.567Z,159.90
2018-03-06T03:09:02.288Z,180.30
2018-03-06T03:11:30.025Z,174.27
2018-03-06T03:13:57.743Z,144.18
2018-03-06T03:16:25.480Z,146.23
2018-03-06T03:18:53.290Z,151.02
2018-03-06T03:21:21.053Z,155.07
2018-03-06T03:23:48.814Z,179.68
2018-03-06T03:26:16.552Z,189.45
2018-03-06T03:28:45.268Z,165.48
2018-03-06T03:31:13.005Z,184.35
2018-03-06T03:33:40.806Z,173.45
2018-03-06T03:36:08.616Z,155.65
2018-03-06T03:38:36.392Z,156.98
2018-03-06T03:41:04.136Z,153.45
2018-03-06T03:43:31.848Z,161.43
2018-03-06T03:46:00.444Z,162.70
2018-03-06T03:48:28.209Z,156.87
2018-03-06T03:50:55.977Z,143.98
2018-03-06T03:53:23.736Z,149.50
2018-03-06T03:55:51.480Z,151.70
2018-03-06T03:58:19.188Z,156.45
2018-03-06T04:00:46.908Z,149.12
2018-03-06T04:03:14.697Z,158.75
2018-03-06T04:05:42.461Z,140.52
2018-03-06T04:08:10.201Z,152.00
2018-03-06T04:10:37.905Z,149.32
2018-03-06T04:13:05.642Z,159.55
2018-03-06T04:15:33.356Z,156.70
2018-03-06T04:18:01.100Z,161.95
2018-03-06T04:20:28.847Z,137.70
2018-03-06T04:22:56.603Z,150.02
2018-03-06T04:25:24.589Z,154.15
2018-03-06T04:27:52.352Z,135.88
2018-03-06T04:30:20.080Z,148.70
2018-03-06T04:32:47.885Z,133.23
2018-03-06T04:35:15.645Z,167.73
2018-03-06T04:37:43.356Z,146.15
2018-03-06T04:40:11.104Z,158.68
2018-03-06T04:42:38.816Z,142.35
2018-03-06T04:45:06.559Z,153.43
2018-03-06T04:47:34.372Z,136.45
2018-03-06T04:50:02.132Z,144.02
2018-03-06T04:52:29.855Z,142.80
2018-03-06T04:54:57.622Z,176.50
2018-03-06T04:57:25.341Z,201.02
2018-03-06T04:59:53.097Z,171.57
2018-03-06T05:02:20.837Z,170.27
2018-03-06T05:04:48.620Z,160.55
2018-03-06T05:07:16.364Z,167.82
2018-03-06T05:09:44.144Z,187.00
2018-03-06T05:12:11.885Z,149.60
2018-03-06T05:14:39.689Z,172.87
2018-03-06T05:17:07.428Z,184.68
2018-03-06T05:19:35.213Z,154.38
2018-03-06T05:22:02.943Z,172.77
2018-03-06T05:24:30.746Z,152.95
2018-03-06T05:26:58.616Z,188.75
2018-03-06T05:29:26.376Z,178.87
2018-03-06T05:31:54.145Z,161.30
2018-03-06T05:34:21.884Z,150.20
2018-03-06T05:36:50.038Z,189.75
2018-03-06T05:39:17.780Z,161.82
2018-03-06T05:41:45.620Z,149.98
2018-03-06T05:44:13.353Z,148.90
2018-03-06T05:46:41.068Z,175.73
2018-03-06T05:49:08.908Z,191.80
2018-03-06T05:51:36.612Z,198.38
2018-03-06T05:54:04.372Z,188.68
2018-03-06T05:56:32.092Z,178.85
2018-03-06T05:58:59.809Z,194.70
2018-03-06T06:01:27.552Z,194.25
2018-03-06T06:03:55.291Z,203.82
2018-03-06T06:06:23.064Z,200.18
2018-03-06T06:08:50.824Z,190.77
2018-03-06T06:11:18.685Z,180.75
2018-03-06T06:13:46.405Z,191.37
2018-03-06T06:16:14.120Z,185.68
2018-03-06T06:18:41.888Z,207.77
2018-03-06T06:21:09.605Z,190.05
2018-03-06T06:23:37.296Z,203.43
2018-03-06T06:26:05.056Z,184.35
2018-03-06T06:28:32.749Z,194.32
2018-03-06T06:31:00.461Z,204.02
2018-03-06T06:33:28.177Z,196.73
2018-03-06T06:35:55.936Z,198.25
2018-03-06T06:38:23.703Z,206.85
2018-03-06T06:40:51.464Z,201.65
2018-03-06T06:43:19.193Z,196.10
2018-03-06T06:45:47.008Z,191.57
2018-03-06T06:48:14.760Z,185.23
2018-03-06T06:50:42.480Z,189.52
2018-03-06T06:53:10.192Z,206.45
2018-03-06T06:55:37.886Z,195.40
2018-03-06T06:58:05.616Z,173.60
2018-03-06T07:00:33.385Z,184.68
2018-03-06T07:03:01.080Z,167.70
2018-03-06T07:05:28.905Z,172.55
2018-03-06T07:07:56.679Z,163.23
2018-03-06T07:10:24.409Z,174.30
2018-03-06T07:12:52.200Z,156.75
2018-03-06T07:15:19.921Z,171.32
2018-03-06T07:17:47.731Z,156.98
2018-03-06T07:20:15.509Z,162.57
2018-03-06T07:22:43.268Z,164.80
2018-03-06T07:25:11.128Z,169.52
2018-03-06T07:27:38.910Z,157.70
2018-03-06T07:30:06.762Z,175.23
2018-03-06T07:32:34.460Z,182.75
2018-03-06T07:35:02.197Z,159.27
2018-03-06T07:37:29.968Z,172.80
2018-03-06T07:39:57.721Z,151.05
2018-03-06T07:42:25.498Z,178.93
2018-03-06T07:44:53.255Z,151.68
2018-03-06T07:47:21.035Z,182.30
2018-03-06T07:49:48.793Z,184.60
2018-03-06T07:52:16.530Z,173.75
2018-03-06T07:54:44.220Z,167.50
2018-03-06T07:57:12.047Z,196.12
2018-03-06T07:59:39.752Z,182.55
2018-03-06T08:02:07.517Z,186.40
2018-03-06T08:04:35.285Z,209.00
2018-03-06T08:07:03.041Z,185.90
2018-03-06T08:09:30.859Z,186.07
2018-03-06T08:11:58.727Z,205.10
2018-03-06T08:14:26.397Z,210.60
2018-03-06T08:16:54.104Z,199.90
2018-03-06T08:19:21.819Z,180.23
2018-03-06T08:21:49.535Z,197.82
2018-03-06T08:24:17.297Z,203.05
2018-03-06T08:26:45.001Z,209.02
2018-03-06T08:29:12.819Z,188.85
2018-03-06T08:31:40.492Z,201.20
2018-03-06T08:34:08.124Z,210.97
2018-03-06T08:36:35.817Z,198.43
2018-03-06T08:39:03.453Z,210.60
2018-03-06T08:41:31.141Z,238.30
2018-03-06T08:43:58.772Z,214.73
2018-03-06T08:46:26.397Z,222.33
2018-03-06T08:48:54.028Z,211.83
2018-03-06T08:51:21.660Z,222.80
2018-03-06T08:53:49.268Z,237.03
2018-03-06T08:56:16.901Z,205.70
2018-03-06T08:58:45.448Z,218.53
2018-03-06T09:01:13.160Z,229.07
2018-03-06T09:03:40.838Z,216.77
2018-03-06T09:06:08.489Z,219.60
2018-03-06T09:08:36.152Z,224.13
2018-03-06T09:11:03.804Z,237.00
2018-03-06T09:13:31.416Z,213.27
2018-03-06T09:15:59.140Z,224.47
2018-03-06T09:18:26.800Z,213.57
2018-03-06T09:20:54.416Z,212.50
2018-03-06T09:23:22.123Z,198.83
2018-03-06T09:25:49.735Z,220.90
2018-03-06T09:28:17.369Z,204.10
2018-03-06T09:30:45.024Z,219.87
2018-03-06T09:33:12.771Z,224.57
2018-03-06T09:35:40.381Z,221.07
2018-03-06T09:38:08.104Z,202.70
2018-03-06T09:40:35.764Z,207.27
2018-03-06T09:43:03.428Z,203.33
2018-03-06T09:45:31.126Z,199.30
2018-03-06T09:47:58.952Z,192.53
2018-03-06T09:50:26.624Z,204.33
2018-03-06T09:52:54.285Z,185.73
2018-03-06T09:55:21.948Z,204.03
2018-03-06T09:57:49.713Z,191.00
2018-03-06T10:00:17.325Z,184.80
2018-03-06T10:02:44.936Z,209.70
2018-03-06T10:05:12.596Z,192.17
2018-03-06T10:07:40.212Z,220.77
2018-03-06T10:10:07.925Z,196.07
2018-03-06T10:12:35.588Z,206.73
2018-03-06T10:15:03.247Z,206.90
2018-03-06T10:17:30.916Z,184.83
2018-03-06T10:19:58.579Z,170.80
2018-03-06T10:22:26.202Z,174.87
2018-03-06T10:24:53.893Z,169.90
2018-03-06T10:27:21.564Z,176.20
2018-03-06T10:29:49.196Z,178.77
2018-03-06T10:32:16.888Z,145.40
2018-03-06T10:34:44.521Z,170.70
2018-03-06T10:37:12.218Z,169.70
2018-03-06T10:39:39.848Z,185.00
2018-03-06T10:42:07.544Z,163.30
2018-03-06T10:44:35.180Z,178.17
2018-03-06T10:47:02.800Z,175.63
2018-03-06T10:49:30.480Z,164.93
2018-03-06T10:51:58.095Z,166.37
2018-03-06T10:54:26.092Z,153.50
2018-03-06T10:56:53.720Z,182.43
2018-03-06T10:59:21.332Z,156.60
2018-03-06T11:01:48.964Z,175.30
2018-03-06T11:04:16.608Z,175.03
2018-03-06T11:06:44.367Z,164.90
2018-03-06T11:09:12.033Z,176.53
2018-03-06T11:11:39.680Z,186.63
2018-03-06T11:14:07.292Z,189.10
2018-03-06T11:16:34.924Z,183.13
2018-03-06T11:19:02.541Z,209.53
2018-03-06T11:21:30.185Z,202.37
2018-03-06T11:23:57.813Z,202.63
2018-03-06T11:26:25.472Z,208.10
2018-03-06T11:28:53.136Z,211.77
2018-03-06T11:31:20.776Z,209.30
2018-03-06T11:33:48.392Z,205.17
2018-03-06T11:36:16.028Z,172.43
2018-03-06T11:38:43.683Z,185.67
2018-03-06T11:41:11.352Z,202.00
2018-03-06T11:43:38.963Z,184.73
2018-03-06T11:46:06.585Z,175.30
2018-03-06T11:48:34.217Z,167.40
2018-03-06T11:51:01.896Z,173.13
2018-03-06T11:53:29.560Z,169.70
2018-03-06T11:55:57.242Z,184.37
2018-03-06T11:58:24.885Z,198.40
2018-03-06T12:00:52.496Z,181.13
2018-03-06T12:03:20.137Z,197.27
2018-03-06T12:05:47.773Z,169.10
2018-03-06T12:08:15.408Z,170.13
2018-03-06T12:10:43.025Z,186.47
2018-03-06T12:13:10.657Z,192.50
2018-03-06T12:15:38.273Z,183.10
2018-03-06T12:18:05.913Z,179.60
2018-03-06T12:20:33.560Z,178.43
2018-03-06T12:23:01.313Z,174.17
2018-03-06T12:25:28.975Z,189.33
2018-03-06T12:27:56.583Z,178.33
2018-03-06T12:30:24.228Z,186.17
2018-03-06T12:32:51.851Z,152.93
2018-03-06T12:35:19.511Z,162.00
2018-03-06T12:37:47.185Z,149.33
2018-03-06T12:40:14.844Z,156.50
2018-03-06T12:42:42.517Z,153.77
2018-03-06T12:45:10.169Z,162.80
2018-03-06T12:47:37.832Z,164.83
2018-03-06T12:50:05.503Z,156.83
2018-03-06T12:52:33.161Z,143.80
2018-03-06T12:55:00.873Z,169.57
2018-03-06T12:57:28.464Z,160.10
2018-03-06T12:59:56.149Z,172.93
2018-03-06T13:02:23.817Z,162.10
2018-03-06T13:04:51.428Z,158.90
2018-03-06T13:07:19.064Z,190.83
2018-03-06T13:09:46.681Z,174.83
2018-03-06T13:12:14.323Z,174.47
2018-03-06T13:14:41.936Z,148.87
2018-03-06T13:17:09.576Z,169.37
2018-03-06T13:19:37.188Z,176.97
2018-03-06T13:22:04.821Z,162.73
2018-03-06T13:24:32.562Z,158.37
2018-03-06T13:27:00.236Z,169.70
2018-03-06T13:29:27.853Z,160.77
2018-03-06T13:31:55.489Z,168.33
2018-03-06T13:34:23.099Z,152.80
2018-03-06T13:36:50.737Z,146.80
2018-03-06T13:39:18.444Z,139.50
2018-03-06T13:41:46.115Z,150.53
2018-03-06T13:44:13.752Z,164.17
2018-03-06T13:46:41.369Z,165.70
2018-03-06T13:49:09.000Z,165.43
2018-03-06T13:51:36.751Z,161.37
2018-03-06T13:54:04.424Z,160.77
2018-03-06T13:56:32.036Z,161.50
2018-03-06T13:58:59.756Z,146.10
2018-03-06T14:01:27.416Z,167.40
2018-03-06T14:03:55.168Z,150.27
2018-03-06T14:06:22.935Z,156.13
2018-03-06T14:08:50.568Z,143.43
2018-03-06T14:11:18.182Z,147.03
2018-03-06T14:13:45.828Z,139.57
2018-03-06T14:16:13.585Z,150.30
2018-03-06T14:18:41.193Z,151.67
2018-03-06T14:21:08.920Z,151.27
2018-03-06T14:23:36.584Z,146.43
2018-03-06T14:26:04.212Z,143.83
2018-03-06T14:28:31.820Z,149.67
2018-03-06T14:30:59.664Z,146.80
2018-03-06T14:33:27.336Z,147.90
2018-03-06T14:35:54.996Z,136.43
2018-03-06T14:38:22.652Z,131.30
2018-03-06T14:40:50.322Z,133.43
2018-03-06T14:43:17.956Z,134.70
2018-03-06T14:45:45.640Z,130.50
2018-03-06T14:48:13.312Z,128.03
2018-03-06T14:53:13.860Z,135.57
2018-03-06T14:55:41.526Z,127.83
2018-03-06T14:58:09.284Z,124.27
2018-03-06T15:00:37.668Z,120.67
2018-03-06T15:03:05.332Z,143.97
2018-03-06T15:05:32.977Z,130.00
2018-03-06T15:08:00.592Z,125.30
2018-03-06T15:10:28.228Z,115.97
2018-03-06T15:12:55.843Z,135.17
2018-03-06T15:15:23.541Z,135.27
2018-03-06T15:17:51.152Z,147.17
2018-03-06T15:20:18.794Z,144.63
2018-03-06T15:22:46.428Z,143.03
2018-03-06T15:25:14.092Z,129.93
2018-03-06T15:27:41.705Z,130.03
2018-03-06T15:30:09.426Z,139.00
2018-03-06T15:32:37.080Z,130.33
2018-03-06T15:35:04.692Z,145.40
2018-03-06T15:37:32.329Z,153.37
2018-03-06T15:39:59.949Z,142.10
2018-03-06T15:42:27.584Z,153.47
2018-03-06T15:44:55.197Z,153.90
2018-03-06T15:47:22.833Z,139.00
2018-03-06T15:49:50.512Z,133.90
2018-03-06T15:52:18.176Z,153.63
2018-03-06T15:54:45.792Z,146.20
2018-03-06T15:57:13.426Z,143.13
2018-03-06T15:59:41.040Z,146.60
2018-03-06T16:02:08.724Z,145.73
2018-03-06T16:04:36.343Z,153.87
2018-03-06T16:07:04.000Z,153.77
2018-03-06T16:09:31.617Z,148.90
2018-03-06T16:11:59.376Z,148.73
2018-03-06T16:14:27.042Z,143.93
2018-03-06T16:16:54.694Z,161.43
2018-03-06T16:19:22.328Z,150.60
2018-03-06T16:21:49.941Z,154.80
2018-03-06T16:24:17.593Z,149.50
2018-03-06T16:26:45.252Z,154.63
2018-03-06T16:29:12.884Z,150.73
2018-03-06T16:31:40.579Z,141.13
2018-03-06T16:34:08.240Z,148.77
2018-03-06T16:36:35.997Z,164.63
2018-03-06T16:39:03.632Z,157.37
2018-03-06T16:41:31.328Z,141.70
2018-03-06T16:43:58.992Z,159.33
2018-03-06T16:46:26.657Z,155.93
2018-03-06T16:48:54.324Z,147.83
2018-03-06T16:51:21.961Z,155.07
2018-03-06T16:53:49.575Z,161.80
2018-03-06T16:56:17.209Z,175.80
2018-03-06T16:58:44.820Z,165.23
2018-03-06T17:01:12.461Z,158.77
2018-03-06T17:03:40.073Z,157.77
2018-03-06T17:06:07.721Z,164.10
2018-03-06T17:08:35.336Z,167.80
2018-03-06T17:11:02.969Z,173.93
2018-03-06T17:13:30.640Z,170.53
2018-03-06T17:15:58.409Z,159.67
2018-03-06T17:18:26.024Z,162.03
2018-03-06T17:20:53.638Z,160.03
2018-03-06T17:23:21.276Z,160.63
2018-03-06T17:25:48.954Z,157.07
2018-03-06T17:28:16.584Z,157.97
2018-03-06T17:30:44.198Z,176.47
2018-03-06T17:33:11.940Z,157.03
2018-03-06T17:35:39.552Z,156.90
2018-03-06T17:38:07.184Z,175.63
2018-03-06T17:40:34.833Z,163.43
2018-03-06T17:43:02.492Z,142.27
2018-03-06T17:45:30.112Z,156.87
2018-03-06T17:47:57.745Z,157.40
2018-03-06T17:50:25.356Z,155.87
2018-03-06T17:52:53.005Z,156.93
2018-03-06T17:55:20.616Z,176.70
2018-03-06T17:57:48.228Z,156.40
2018-03-06T18:00:15.936Z,158.63
2018-03-06T18:02:43.552Z,154.10
2018-03-06T18:05:11.253Z,164.77
2018-03-06T18:07:38.912Z,178.73
2018-03-06T18:10:06.576Z,190.37
2018-03-06T18:12:34.243Z,190.43
2018-03-06T18:15:01.876Z,171.50
2018-03-06T18:17:29.565Z,171.37
2018-03-06T18:19:57.323Z,188.17
2018-03-06T18:22:24.932Z,197.13
2018-03-06T18:24:52.569Z,184.07
2018-03-06T18:27:20.220Z,173.47
2018-03-06T18:29:47.852Z,179.60
2018-03-06T18:32:15.552Z,180.30
2018-03-06T18:34:43.309Z,179.57
2018-03-06T18:37:10.976Z,175.30
2018-03-06T18:39:38.594Z,198.27
2018-03-06T18:42:06.411Z,204.53
2018-03-06T18:44:34.052Z,192.83
2018-03-06T18:47:01.688Z,204.37
2018-03-06T18:49:29.317Z,179.17
2018-03-06T18:51:57.045Z,194.80
2018-03-06T18:54:24.706Z,190.00
2018-03-06T18:56:52.376Z,199.73
2018-03-06T18:59:19.998Z,197.70
2018-03-06T19:05:02.776Z,203.27
2018-03-06T19:07:30.409Z,188.37
2018-03-06T19:09:58.030Z,190.03
2018-03-06T19:12:25.768Z,186.07
2018-03-06T19:14:53.384Z,199.03
2018-03-06T19:17:21.090Z,201.37
2018-03-06T19:19:48.704Z,208.93
2018-03-06T19:22:16.458Z,190.73
2018-03-06T19:24:44.180Z,194.83
2018-03-06T19:27:11.835Z,189.63
2018-03-06T19:29:39.500Z,195.47
2018-03-06T19:32:07.112Z,188.57
2018-03-06T19:34:35.086Z,201.90
2018-03-06T19:37:02.712Z,207.30
2018-03-06T19:39:30.345Z,198.63
2018-03-06T19:41:58.025Z,193.40
2018-03-06T19:44:25.733Z,202.67
2018-03-06T19:46:53.324Z,207.23
2018-03-06T19:49:21.117Z,210.87
2018-03-06T19:51:48.777Z,204.90
2018-03-06T19:54:16.413Z,201.10
2018-03-06T19:56:44.025Z,202.83
2018-03-06T19:59:11.757Z,188.40
2018-03-06T20:01:39.368Z,201.23
2018-03-06T20:04:07.092Z,212.87
2018-03-06T20:06:34.704Z,198.80
2018-03-06T20:09:02.341Z,214.60
2018-03-06T20:11:29.956Z,213.30
2018-03-06T20:13:57.644Z,193.57
2018-03-06T20:16:25.313Z,215.57
2018-03-06T20:18:58.628Z,229.40
2018-03-06T20:21:26.278Z,194.30
2018-03-06T20:23:53.921Z,215.70
2018-03-06T20:26:21.541Z,198.20
2018-03-06T20:28:49.185Z,190.87
2018-03-06T20:31:22.317Z,208.07
2018-03-06T20:33:49.973Z,204.53
2018-03-06T20:36:17.584Z,208.47
2018-03-06T20:38:50.879Z,210.17
2018-03-06T20:41:18.520Z,211.90
2018-03-06T20:43:46.185Z,211.77
2018-03-06T20:46:19.497Z,205.60
2018-03-06T20:48:47.109Z,204.97
2018-03-06T20:51:14.805Z,222.30
2018-03-06T20:53:48.140Z,196.50
2018-03-06T20:56:15.864Z,216.30
2018-03-06T20:58:43.480Z,209.83
2018-03-06T21:01:11.116Z,198.97
2018-03-06T21:03:38.757Z,214.77
2018-03-06T21:06:06.512Z,205.40
2018-03-06T21:08:34.185Z,219.40
2018-03-06T21:11:01.826Z,189.70
2018-03-06T21:13:29.505Z,193.90
2018-03-06T21:15:57.154Z,201.90
2018-03-06T21:18:25.705Z,200.30
2018-03-06T21:20:53.344Z,196.77
2018-03-06T21:23:20.972Z,212.47
2018-03-06T21:25:48.606Z,205.90
2018-03-06T21:28:16.226Z,212.67
2018-03-06T21:30:43.870Z,192.53
2018-03-06T21:33:11.484Z,203.13
2018-03-06T21:35:39.121Z,208.37
2018-03-06T21:38:06.748Z,201.83
2018-03-06T21:40:34.515Z,210.83
2018-03-06T21:43:02.172Z,222.40
2018-03-06T21:45:29.838Z,209.63
2018-03-06T21:47:57.497Z,204.43
2018-03-06T21:50:25.136Z,205.57
2018-03-06T21:52:52.753Z,204.90
2018-03-06T21:55:20.490Z,214.13
2018-03-06T21:57:48.109Z,209.03
2018-03-06T22:00:15.720Z,226.53
2018-03-06T22:02:43.352Z,206.53
2018-03-06T22:05:10.964Z,204.87
2018-03-06T22:07:38.596Z,209.87
2018-03-06T22:10:06.261Z,210.23
2018-03-06T22:12:33.924Z,198.33
2018-03-06T22:15:01.537Z,213.80
2018-03-06T22:17:29.179Z,200.50
2018-03-06T22:19:56.808Z,186.30
2018-03-06T22:22:24.472Z,190.80
2018-03-06T22:24:52.137Z,194.63
2018-03-06T22:27:19.784Z,187.00
2018-03-06T22:29:47.464Z,203.27
2018-03-06T22:32:15.101Z,199.63
2018-03-06T22:34:42.788Z,198.40
2018-03-06T22:37:10.543Z,186.57
2018-03-06T22:39:38.158Z,188.53
2018-03-06T22:42:05.773Z,198.80
2018-03-06T22:44:33.444Z,195.90
2018-03-06T22:47:01.090Z,198.73
2018-03-06T22:49:28.728Z,200.43
2018-03-06T22:51:56.428Z,208.73
2018-03-06T22:54:24.065Z,200.50
2018-03-06T22:56:51.681Z,192.90
2018-03-06T22:59:19.316Z,194.73
2018-03-06T23:01:46.933Z,183.23
2018-03-06T23:04:14.577Z,188.83
2018-03-06T23:06:42.193Z,190.33
2018-03-06T23:09:09.868Z,195.20
2018-03-06T23:11:37.523Z,197.27
2018-03-06T23:14:05.141Z,189.47
2018-03-06T23:16:32.784Z,212.00
2018-03-06T23:19:00.388Z,181.43
2018-03-06T23:21:28.077Z,200.87
2018-03-06T23:23:55.737Z,203.73
2018-03-06T23:26:23.392Z,209.87
2018-03-06T23:28:51.014Z,215.63
2018-03-06T23:31:18.643Z,221.47
2018-03-06T23:33:46.248Z,216.60
2018-03-06T23:36:13.902Z,225.43
2018-03-06T23:38:41.521Z,218.50
2018-03-06T23:41:09.264Z,216.97
2018-03-06T23:43:36.872Z,225.47
2018-03-06T23:46:04.516Z,217.67
2018-03-06T23:48:32.151Z,233.37
2018-03-06T23:50:59.751Z,208.63
2018-03-06T23:53:27.375Z,226.40
2018-03-06T23:55:54.985Z,224.10
2018-03-06T23:58:22.713Z,211.93
